sensor_id;sensor_type;location;lat;lon;timestamp;temperature;humidity
2651;DHT22;1335;48.180;16.342;2022-08-19T00:01:47;22.60;99.90
2651;DHT22;1335;48.180;16.342;2022-08-19T00:04:17;22.60;99.90
2651;DHT22;1335;48.180;16.342;2022-08-19T00:06:45;22.30;99.90
2651;DHT22;1335;48.180;16.342;2022-08-19T00:09:14;22.20;99.90
2651;DHT22;1335;48.180;16.342;2022-08-19T00:11:42;22.10;99.90
2651;DHT22;1335;48.180;16.342;2022-08-19T00:14:11;22.40;99.90
2651;DHT22;1335;48.180;16.342;2022-08-19T00:16:39;22.30;99.90
2651;DHT22;1335;48.180;16.342;2022-08-19T00:19:08;22.20;99.90
2651;DHT22;1335;48.180;16.342;2022-08-19T00:21:37;21.50;99.90
2651;DHT22;1335;48.180;16.342;2022-08-19T00:24:06;22.50;99.90
2651;DHT22;1335;48.180;16.342;2022-08-19T00:26:35;22.50;99.90
2651;DHT22;1335;48.180;16.342;2022-08-19T00:29:05;22.50;99.90
2651;DHT22;1335;48.180;16.342;2022-08-19T00:31:33;22.20;99.90
2651;DHT22;1335;48.180;16.342;2022-08-19T00:34:01;22.30;99.90
2651;DHT22;1335;48.180;16.342;2022-08-19T00:36:28;22.30;99.90
2651;DHT22;1335;48.180;16.342;2022-08-19T00:38:56;22.20;99.90
2651;DHT22;1335;48.180;16.342;2022-08-19T00:41:24;21.90;99.90
2651;DHT22;1335;48.180;16.342;2022-08-19T00:44:03;22.20;99.90
2651;DHT22;1335;48.180;16.342;2022-08-19T00:46:32;22.00;99.90
2651;DHT22;1335;48.180;16.342;2022-08-19T00:49:02;22.50;99.90
2651;DHT22;1335;48.180;16.342;2022-08-19T00:51:33;21.50;99.90
2651;DHT22;1335;48.180;16.342;2022-08-19T00:54:03;22.00;99.90
2651;DHT22;1335;48.180;16.342;2022-08-19T00:56:30;21.80;99.90
2651;DHT22;1335;48.180;16.342;2022-08-19T00:58:58;21.50;99.90
2651;DHT22;1335;48.180;16.342;2022-08-19T01:01:27;22.40;99.90
2651;DHT22;1335;48.180;16.342;2022-08-19T01:03:54;21.60;99.90
2651;DHT22;1335;48.180;16.342;2022-08-19T01:06:21;21.70;99.90
2651;DHT22;1335;48.180;16.342;2022-08-19T01:08:48;22.10;99.90
2651;DHT22;1335;48.180;16.342;2022-08-19T01:11:17;21.40;99.90
2651;DHT22;1335;48.180;16.342;2022-08-19T01:13:46;21.40;99.90
2651;DHT22;1335;48.180;16.342;2022-08-19T01:16:13;21.90;99.90
2651;DHT22;1335;48.180;16.342;2022-08-19T01:18:42;21.50;99.90
2651;DHT22;1335;48.180;16.342;2022-08-19T01:21:13;21.20;99.90
2651;DHT22;1335;48.180;16.342;2022-08-19T01:23:44;21.70;99.90
2651;DHT22;1335;48.180;16.342;2022-08-19T01:26:14;21.70;99.90
2651;DHT22;1335;48.180;16.342;2022-08-19T01:28:42;21.40;99.90
2651;DHT22;1335;48.180;16.342;2022-08-19T01:31:13;21.70;99.90
2651;DHT22;1335;48.180;16.342;2022-08-19T01:33:40;21.30;99.90
2651;DHT22;1335;48.180;16.342;2022-08-19T01:36:10;21.40;99.90
2651;DHT22;1335;48.180;16.342;2022-08-19T01:38:40;21.30;99.90
2651;DHT22;1335;48.180;16.342;2022-08-19T01:41:10;21.60;99.90
2651;DHT22;1335;48.180;16.342;2022-08-19T01:43:38;21.60;99.90
2651;DHT22;1335;48.180;16.342;2022-08-19T01:46:05;21.40;99.90
2651;DHT22;1335;48.180;16.342;2022-08-19T01:48:36;21.40;99.90
2651;DHT22;1335;48.180;16.342;2022-08-19T01:51:05;21.10;99.90
2651;DHT22;1335;48.180;16.342;2022-08-19T01:53:32;21.10;99.90
2651;DHT22;1335;48.180;16.342;2022-08-19T01:55:59;20.90;99.90
2651;DHT22;1335;48.180;16.342;2022-08-19T01:58:31;20.80;99.90
2651;DHT22;1335;48.180;16.342;2022-08-19T02:00:59;20.90;99.90
2651;DHT22;1335;48.180;16.342;2022-08-19T02:03:26;21.00;99.90
2651;DHT22;1335;48.180;16.342;2022-08-19T02:05:55;21.30;99.90
2651;DHT22;1335;48.180;16.342;2022-08-19T02:08:23;21.50;99.90
2651;DHT22;1335;48.180;16.342;2022-08-19T02:10:50;21.20;99.90
2651;DHT22;1335;48.180;16.342;2022-08-19T02:13:18;21.30;99.90
2651;DHT22;1335;48.180;16.342;2022-08-19T02:15:46;21.50;99.90
2651;DHT22;1335;48.180;16.342;2022-08-19T02:18:14;21.30;99.90
2651;DHT22;1335;48.180;16.342;2022-08-19T02:20:42;21.50;99.90
2651;DHT22;1335;48.180;16.342;2022-08-19T02:23:11;21.80;99.90
2651;DHT22;1335;48.180;16.342;2022-08-19T02:25:38;21.20;99.90
2651;DHT22;1335;48.180;16.342;2022-08-19T02:28:06;21.50;99.90
2651;DHT22;1335;48.180;16.342;2022-08-19T02:30:33;21.70;99.90
2651;DHT22;1335;48.180;16.342;2022-08-19T02:33:02;21.10;99.90
2651;DHT22;1335;48.180;16.342;2022-08-19T02:35:29;21.80;99.90
2651;DHT22;1335;48.180;16.342;2022-08-19T02:37:57;21.30;99.90
2651;DHT22;1335;48.180;16.342;2022-08-19T02:40:46;21.70;99.90
2651;DHT22;1335;48.180;16.342;2022-08-19T02:43:15;21.70;99.90
2651;DHT22;1335;48.180;16.342;2022-08-19T02:45:42;21.90;99.90
2651;DHT22;1335;48.180;16.342;2022-08-19T02:48:10;21.30;99.90
2651;DHT22;1335;48.180;16.342;2022-08-19T02:50:38;21.30;99.90
2651;DHT22;1335;48.180;16.342;2022-08-19T02:53:05;22.20;99.90
2651;DHT22;1335;48.180;16.342;2022-08-19T02:55:34;21.70;99.90
2651;DHT22;1335;48.180;16.342;2022-08-19T02:58:01;21.70;99.90
2651;DHT22;1335;48.180;16.342;2022-08-19T03:00:28;21.80;99.90
2651;DHT22;1335;48.180;16.342;2022-08-19T03:02:55;21.80;99.90
2651;DHT22;1335;48.180;16.342;2022-08-19T03:05:24;21.90;99.90
2651;DHT22;1335;48.180;16.342;2022-08-19T03:07:51;21.80;99.90
2651;DHT22;1335;48.180;16.342;2022-08-19T03:10:18;21.70;99.90
2651;DHT22;1335;48.180;16.342;2022-08-19T03:12:45;21.50;99.90
2651;DHT22;1335;48.180;16.342;2022-08-19T03:15:12;21.60;99.90
2651;DHT22;1335;48.180;16.342;2022-08-19T03:17:40;21.60;99.90
2651;DHT22;1335;48.180;16.342;2022-08-19T03:20:07;21.40;99.90
2651;DHT22;1335;48.180;16.342;2022-08-19T03:22:36;21.40;99.90
2651;DHT22;1335;48.180;16.342;2022-08-19T03:25:04;21.90;99.90
2651;DHT22;1335;48.180;16.342;2022-08-19T03:27:31;21.90;99.90
2651;DHT22;1335;48.180;16.342;2022-08-19T03:29:58;21.30;99.90
2651;DHT22;1335;48.180;16.342;2022-08-19T03:32:25;22.10;99.90
2651;DHT22;1335;48.180;16.342;2022-08-19T03:34:52;21.50;99.90
2651;DHT22;1335;48.180;16.342;2022-08-19T03:37:19;22.30;99.90
2651;DHT22;1335;48.180;16.342;2022-08-19T03:39:49;21.70;99.90
2651;DHT22;1335;48.180;16.342;2022-08-19T03:42:16;21.50;99.90
2651;DHT22;1335;48.180;16.342;2022-08-19T03:44:43;21.70;99.90
2651;DHT22;1335;48.180;16.342;2022-08-19T03:47:11;21.40;99.90
2651;DHT22;1335;48.180;16.342;2022-08-19T03:49:41;21.90;99.90
2651;DHT22;1335;48.180;16.342;2022-08-19T03:52:08;21.40;99.90
2651;DHT22;1335;48.180;16.342;2022-08-19T03:54:36;22.10;99.90
2651;DHT22;1335;48.180;16.342;2022-08-19T03:57:05;21.80;99.90
2651;DHT22;1335;48.180;16.342;2022-08-19T03:59:35;21.60;99.90
2651;DHT22;1335;48.180;16.342;2022-08-19T04:02:06;22.10;99.90
2651;DHT22;1335;48.180;16.342;2022-08-19T04:04:35;21.90;99.90
2651;DHT22;1335;48.180;16.342;2022-08-19T04:07:03;21.80;99.90
2651;DHT22;1335;48.180;16.342;2022-08-19T04:09:30;21.30;99.90
2651;DHT22;1335;48.180;16.342;2022-08-19T04:11:57;21.80;99.90
2651;DHT22;1335;48.180;16.342;2022-08-19T04:14:28;22.10;99.90
2651;DHT22;1335;48.180;16.342;2022-08-19T04:16:56;21.90;99.90
2651;DHT22;1335;48.180;16.342;2022-08-19T04:19:23;22.10;99.90
2651;DHT22;1335;48.180;16.342;2022-08-19T04:21:52;21.80;99.90
2651;DHT22;1335;48.180;16.342;2022-08-19T04:24:20;22.80;99.90
2651;DHT22;1335;48.180;16.342;2022-08-19T04:26:48;22.60;99.90
2651;DHT22;1335;48.180;16.342;2022-08-19T04:29:17;22.70;99.90
2651;DHT22;1335;48.180;16.342;2022-08-19T04:31:48;23.30;99.90
2651;DHT22;1335;48.180;16.342;2022-08-19T04:34:18;23.30;99.90
2651;DHT22;1335;48.180;16.342;2022-08-19T04:36:48;23.30;99.90
2651;DHT22;1335;48.180;16.342;2022-08-19T04:39:19;23.50;99.90
2651;DHT22;1335;48.180;16.342;2022-08-19T04:41:47;23.90;99.90
2651;DHT22;1335;48.180;16.342;2022-08-19T04:44:32;24.20;99.90
2651;DHT22;1335;48.180;16.342;2022-08-19T04:47:01;23.60;99.90
2651;DHT22;1335;48.180;16.342;2022-08-19T04:49:31;24.10;99.90
2651;DHT22;1335;48.180;16.342;2022-08-19T04:51:58;24.20;99.90
2651;DHT22;1335;48.180;16.342;2022-08-19T04:54:25;24.00;99.90
2651;DHT22;1335;48.180;16.342;2022-08-19T04:56:53;24.20;99.90
2651;DHT22;1335;48.180;16.342;2022-08-19T04:59:20;25.10;99.90
2651;DHT22;1335;48.180;16.342;2022-08-19T05:01:48;24.80;99.90
2651;DHT22;1335;48.180;16.342;2022-08-19T05:04:18;24.90;99.90
2651;DHT22;1335;48.180;16.342;2022-08-19T05:06:46;25.30;99.90
2651;DHT22;1335;48.180;16.342;2022-08-19T05:09:14;25.20;99.90
2651;DHT22;1335;48.180;16.342;2022-08-19T05:11:43;25.40;99.90
2651;DHT22;1335;48.180;16.342;2022-08-19T05:14:11;24.80;99.90
2651;DHT22;1335;48.180;16.342;2022-08-19T05:16:39;25.60;99.90
2651;DHT22;1335;48.180;16.342;2022-08-19T05:19:07;25.40;99.90
2651;DHT22;1335;48.180;16.342;2022-08-19T05:21:53;25.70;99.90
2651;DHT22;1335;48.180;16.342;2022-08-19T05:24:38;25.80;99.90
2651;DHT22;1335;48.180;16.342;2022-08-19T05:27:05;25.50;99.90
2651;DHT22;1335;48.180;16.342;2022-08-19T05:29:33;24.90;99.90
2651;DHT22;1335;48.180;16.342;2022-08-19T05:32:03;24.80;99.90
2651;DHT22;1335;48.180;16.342;2022-08-19T05:34:31;24.60;99.90
2651;DHT22;1335;48.180;16.342;2022-08-19T05:37:02;23.90;99.90
2651;DHT22;1335;48.180;16.342;2022-08-19T05:39:32;24.40;99.90
2651;DHT22;1335;48.180;16.342;2022-08-19T05:42:02;23.90;99.90
2651;DHT22;1335;48.180;16.342;2022-08-19T05:44:31;24.00;99.90
2651;DHT22;1335;48.180;16.342;2022-08-19T05:46:59;23.40;99.90
2651;DHT22;1335;48.180;16.342;2022-08-19T05:49:28;23.40;99.90
2651;DHT22;1335;48.180;16.342;2022-08-19T05:51:56;24.00;99.90
2651;DHT22;1335;48.180;16.342;2022-08-19T05:54:25;24.30;99.90
2651;DHT22;1335;48.180;16.342;2022-08-19T05:56:53;23.70;99.90
2651;DHT22;1335;48.180;16.342;2022-08-19T05:59:20;23.60;99.90
2651;DHT22;1335;48.180;16.342;2022-08-19T06:01:49;23.50;99.90
2651;DHT22;1335;48.180;16.342;2022-08-19T06:04:18;24.40;99.90
2651;DHT22;1335;48.180;16.342;2022-08-19T06:06:46;24.10;99.90
2651;DHT22;1335;48.180;16.342;2022-08-19T06:09:13;24.30;99.90
2651;DHT22;1335;48.180;16.342;2022-08-19T06:11:43;24.40;99.90
2651;DHT22;1335;48.180;16.342;2022-08-19T06:14:13;24.10;99.90
2651;DHT22;1335;48.180;16.342;2022-08-19T06:16:42;24.40;99.90
2651;DHT22;1335;48.180;16.342;2022-08-19T06:19:12;24.10;99.90
2651;DHT22;1335;48.180;16.342;2022-08-19T06:21:42;24.60;99.90
2651;DHT22;1335;48.180;16.342;2022-08-19T06:24:11;23.80;99.90
2651;DHT22;1335;48.180;16.342;2022-08-19T06:26:42;24.50;99.90
2651;DHT22;1335;48.180;16.342;2022-08-19T06:29:11;24.20;99.90
2651;DHT22;1335;48.180;16.342;2022-08-19T06:31:42;25.30;99.90
2651;DHT22;1335;48.180;16.342;2022-08-19T06:34:10;25.10;99.90
2651;DHT22;1335;48.180;16.342;2022-08-19T06:36:39;25.10;99.90
2651;DHT22;1335;48.180;16.342;2022-08-19T06:39:10;26.00;99.90
2651;DHT22;1335;48.180;16.342;2022-08-19T06:41:38;25.50;99.90
2651;DHT22;1335;48.180;16.342;2022-08-19T06:44:08;26.00;99.90
2651;DHT22;1335;48.180;16.342;2022-08-19T06:46:35;26.70;99.90
2651;DHT22;1335;48.180;16.342;2022-08-19T06:49:03;27.50;99.90
2651;DHT22;1335;48.180;16.342;2022-08-19T06:51:31;28.30;99.90
2651;DHT22;1335;48.180;16.342;2022-08-19T06:53:59;27.90;99.90
2651;DHT22;1335;48.180;16.342;2022-08-19T06:56:29;28.40;99.90
2651;DHT22;1335;48.180;16.342;2022-08-19T06:58:59;27.90;99.90
2651;DHT22;1335;48.180;16.342;2022-08-19T07:01:28;27.90;99.90
2651;DHT22;1335;48.180;16.342;2022-08-19T07:03:55;28.10;99.90
2651;DHT22;1335;48.180;16.342;2022-08-19T07:06:22;28.90;99.90
2651;DHT22;1335;48.180;16.342;2022-08-19T07:08:49;28.70;99.90
2651;DHT22;1335;48.180;16.342;2022-08-19T07:11:18;30.00;99.90
2651;DHT22;1335;48.180;16.342;2022-08-19T07:13:46;31.40;99.90
2651;DHT22;1335;48.180;16.342;2022-08-19T07:16:16;31.30;99.90
2651;DHT22;1335;48.180;16.342;2022-08-19T07:18:46;31.80;99.90
2651;DHT22;1335;48.180;16.342;2022-08-19T07:21:16;31.50;99.90
2651;DHT22;1335;48.180;16.342;2022-08-19T07:23:43;31.40;99.90
2651;DHT22;1335;48.180;16.342;2022-08-19T07:26:13;31.10;99.90
2651;DHT22;1335;48.180;16.342;2022-08-19T07:28:42;30.60;99.90
2651;DHT22;1335;48.180;16.342;2022-08-19T07:31:11;30.40;99.90
2651;DHT22;1335;48.180;16.342;2022-08-19T07:33:39;30.70;99.90
2651;DHT22;1335;48.180;16.342;2022-08-19T07:36:09;30.60;99.90
2651;DHT22;1335;48.180;16.342;2022-08-19T07:38:39;31.70;99.90
2651;DHT22;1335;48.180;16.342;2022-08-19T07:41:09;32.10;99.90
2651;DHT22;1335;48.180;16.342;2022-08-19T07:43:36;32.90;99.90
2651;DHT22;1335;48.180;16.342;2022-08-19T07:46:03;34.20;99.90
2651;DHT22;1335;48.180;16.342;2022-08-19T07:48:31;34.50;99.90
2651;DHT22;1335;48.180;16.342;2022-08-19T07:51:00;35.60;99.90
2651;DHT22;1335;48.180;16.342;2022-08-19T07:53:31;36.80;99.90
2651;DHT22;1335;48.180;16.342;2022-08-19T07:55:59;38.50;99.90
2651;DHT22;1335;48.180;16.342;2022-08-19T07:58:30;39.10;99.90
2651;DHT22;1335;48.180;16.342;2022-08-19T08:00:58;39.40;99.90
2651;DHT22;1335;48.180;16.342;2022-08-19T08:03:26;41.50;99.90
2651;DHT22;1335;48.180;16.342;2022-08-19T08:06:08;42.30;99.90
2651;DHT22;1335;48.180;16.342;2022-08-19T08:08:54;43.00;99.90
2651;DHT22;1335;48.180;16.342;2022-08-19T08:11:49;42.60;99.90
2651;DHT22;1335;48.180;16.342;2022-08-19T08:14:19;42.80;99.90
2651;DHT22;1335;48.180;16.342;2022-08-19T08:16:47;44.60;99.90
2651;DHT22;1335;48.180;16.342;2022-08-19T08:19:17;46.00;99.90
2651;DHT22;1335;48.180;16.342;2022-08-19T08:21:45;44.40;99.90
2651;DHT22;1335;48.180;16.342;2022-08-19T08:24:14;44.30;99.90
2651;DHT22;1335;48.180;16.342;2022-08-19T08:26:42;44.30;99.90
2651;DHT22;1335;48.180;16.342;2022-08-19T08:29:10;43.30;99.90
2651;DHT22;1335;48.180;16.342;2022-08-19T08:31:39;43.40;99.90
2651;DHT22;1335;48.180;16.342;2022-08-19T08:34:07;42.50;99.90
2651;DHT22;1335;48.180;16.342;2022-08-19T08:36:36;42.90;99.90
2651;DHT22;1335;48.180;16.342;2022-08-19T08:39:06;42.70;99.90
2651;DHT22;1335;48.180;16.342;2022-08-19T08:41:41;41.20;99.90
2651;DHT22;1335;48.180;16.342;2022-08-19T08:44:17;42.90;99.90
2651;DHT22;1335;48.180;16.342;2022-08-19T08:46:48;43.20;99.90
2651;DHT22;1335;48.180;16.342;2022-08-19T08:49:26;43.00;99.90
2651;DHT22;1335;48.180;16.342;2022-08-19T08:52:04;42.20;99.90
2651;DHT22;1335;48.180;16.342;2022-08-19T08:54:34;41.70;99.90
2651;DHT22;1335;48.180;16.342;2022-08-19T08:57:09;41.70;99.90
2651;DHT22;1335;48.180;16.342;2022-08-19T08:59:41;40.30;99.90
2651;DHT22;1335;48.180;16.342;2022-08-19T09:02:09;35.80;99.90
2651;DHT22;1335;48.180;16.342;2022-08-19T09:04:37;37.40;99.90
2651;DHT22;1335;48.180;16.342;2022-08-19T09:07:25;39.90;99.90
2651;DHT22;1335;48.180;16.342;2022-08-19T09:10:04;40.90;99.90
2651;DHT22;1335;48.180;16.342;2022-08-19T09:12:39;42.60;99.90
2651;DHT22;1335;48.180;16.342;2022-08-19T09:15:15;43.50;99.90
2651;DHT22;1335;48.180;16.342;2022-08-19T09:17:43;44.70;99.90
2651;DHT22;1335;48.180;16.342;2022-08-19T09:20:18;45.00;99.90
2651;DHT22;1335;48.180;16.342;2022-08-19T09:22:46;46.70;99.90
2651;DHT22;1335;48.180;16.342;2022-08-19T09:25:16;46.50;99.90
2651;DHT22;1335;48.180;16.342;2022-08-19T09:27:45;47.00;99.90
2651;DHT22;1335;48.180;16.342;2022-08-19T09:30:17;46.60;99.90
2651;DHT22;1335;48.180;16.342;2022-08-19T09:32:45;46.90;99.90
2651;DHT22;1335;48.180;16.342;2022-08-19T09:35:13;47.20;99.90
2651;DHT22;1335;48.180;16.342;2022-08-19T09:37:43;47.50;99.90
2651;DHT22;1335;48.180;16.342;2022-08-19T09:40:11;48.30;99.90
2651;DHT22;1335;48.180;16.342;2022-08-19T09:42:39;47.70;99.90
2651;DHT22;1335;48.180;16.342;2022-08-19T09:45:11;48.00;99.90
2651;DHT22;1335;48.180;16.342;2022-08-19T09:47:42;48.90;99.90
2651;DHT22;1335;48.180;16.342;2022-08-19T09:50:24;48.80;99.90
2651;DHT22;1335;48.180;16.342;2022-08-19T09:52:52;46.10;99.90
2651;DHT22;1335;48.180;16.342;2022-08-19T09:55:21;45.50;99.90
2651;DHT22;1335;48.180;16.342;2022-08-19T09:57:48;44.60;99.90
2651;DHT22;1335;48.180;16.342;2022-08-19T10:00:18;45.70;99.90
2651;DHT22;1335;48.180;16.342;2022-08-19T10:02:46;47.50;99.90
2651;DHT22;1335;48.180;16.342;2022-08-19T10:05:13;46.40;99.90
2651;DHT22;1335;48.180;16.342;2022-08-19T10:07:58;40.80;99.90
2651;DHT22;1335;48.180;16.342;2022-08-19T10:10:26;40.60;99.90
2651;DHT22;1335;48.180;16.342;2022-08-19T10:12:53;41.40;99.90
2651;DHT22;1335;48.180;16.342;2022-08-19T10:15:23;41.60;99.90
2651;DHT22;1335;48.180;16.342;2022-08-19T10:17:54;37.40;99.90
2651;DHT22;1335;48.180;16.342;2022-08-19T10:20:21;35.80;99.90
2651;DHT22;1335;48.180;16.342;2022-08-19T10:22:48;35.00;99.90
2651;DHT22;1335;48.180;16.342;2022-08-19T10:25:16;32.20;99.90
2651;DHT22;1335;48.180;16.342;2022-08-19T10:27:43;31.70;99.90
2651;DHT22;1335;48.180;16.342;2022-08-19T10:30:12;31.90;99.90
2651;DHT22;1335;48.180;16.342;2022-08-19T10:32:41;33.10;99.90
2651;DHT22;1335;48.180;16.342;2022-08-19T10:35:15;33.00;99.90
2651;DHT22;1335;48.180;16.342;2022-08-19T10:37:43;31.70;99.90
2651;DHT22;1335;48.180;16.342;2022-08-19T10:40:11;31.60;99.90
2651;DHT22;1335;48.180;16.342;2022-08-19T10:42:39;32.20;99.90
2651;DHT22;1335;48.180;16.342;2022-08-19T10:45:07;31.30;99.90
2651;DHT22;1335;48.180;16.342;2022-08-19T10:47:36;31.60;99.90
2651;DHT22;1335;48.180;16.342;2022-08-19T10:50:05;31.10;99.90
2651;DHT22;1335;48.180;16.342;2022-08-19T10:52:50;31.50;99.90
2651;DHT22;1335;48.180;16.342;2022-08-19T10:55:19;31.50;99.90
2651;DHT22;1335;48.180;16.342;2022-08-19T10:58:09;29.80;99.90
2651;DHT22;1335;48.180;16.342;2022-08-19T11:00:36;28.60;99.90
2651;DHT22;1335;48.180;16.342;2022-08-19T11:03:03;28.30;99.90
2651;DHT22;1335;48.180;16.342;2022-08-19T11:05:33;27.80;99.90
2651;DHT22;1335;48.180;16.342;2022-08-19T11:08:00;27.90;99.90
2651;DHT22;1335;48.180;16.342;2022-08-19T11:10:27;27.00;99.90
2651;DHT22;1335;48.180;16.342;2022-08-19T11:12:54;27.80;99.90
2651;DHT22;1335;48.180;16.342;2022-08-19T11:15:21;27.40;99.90
2651;DHT22;1335;48.180;16.342;2022-08-19T11:17:48;27.30;99.90
2651;DHT22;1335;48.180;16.342;2022-08-19T11:20:17;27.30;99.90
2651;DHT22;1335;48.180;16.342;2022-08-19T11:22:46;27.50;99.90
2651;DHT22;1335;48.180;16.342;2022-08-19T11:25:14;27.80;99.90
2651;DHT22;1335;48.180;16.342;2022-08-19T11:27:41;28.20;99.90
2651;DHT22;1335;48.180;16.342;2022-08-19T11:30:10;27.90;99.90
2651;DHT22;1335;48.180;16.342;2022-08-19T11:32:38;28.50;99.90
2651;DHT22;1335;48.180;16.342;2022-08-19T11:35:06;28.30;99.90
2651;DHT22;1335;48.180;16.342;2022-08-19T11:37:34;28.60;99.90
2651;DHT22;1335;48.180;16.342;2022-08-19T11:40:06;29.90;99.90
2651;DHT22;1335;48.180;16.342;2022-08-19T11:42:34;28.30;99.90
2651;DHT22;1335;48.180;16.342;2022-08-19T11:45:19;27.70;99.90
2651;DHT22;1335;48.180;16.342;2022-08-19T11:47:46;29.10;99.90
2651;DHT22;1335;48.180;16.342;2022-08-19T11:50:14;28.70;99.90
2651;DHT22;1335;48.180;16.342;2022-08-19T11:52:42;29.40;99.90
2651;DHT22;1335;48.180;16.342;2022-08-19T11:55:12;30.10;99.90
2651;DHT22;1335;48.180;16.342;2022-08-19T11:57:41;30.70;99.90
2651;DHT22;1335;48.180;16.342;2022-08-19T12:00:10;30.30;99.90
2651;DHT22;1335;48.180;16.342;2022-08-19T12:02:39;30.90;99.90
2651;DHT22;1335;48.180;16.342;2022-08-19T12:05:09;31.80;99.90
2651;DHT22;1335;48.180;16.342;2022-08-19T12:07:37;32.90;99.90
2651;DHT22;1335;48.180;16.342;2022-08-19T12:10:08;32.00;99.90
2651;DHT22;1335;48.180;16.342;2022-08-19T12:12:51;32.50;99.90
2651;DHT22;1335;48.180;16.342;2022-08-19T12:15:19;29.60;99.90
2651;DHT22;1335;48.180;16.342;2022-08-19T12:17:48;29.20;99.90
2651;DHT22;1335;48.180;16.342;2022-08-19T12:20:15;30.20;99.90
2651;DHT22;1335;48.180;16.342;2022-08-19T12:22:56;31.00;99.90
2651;DHT22;1335;48.180;16.342;2022-08-19T12:25:24;31.20;99.90
2651;DHT22;1335;48.180;16.342;2022-08-19T12:27:53;31.70;99.90
2651;DHT22;1335;48.180;16.342;2022-08-19T12:30:20;31.20;99.90
2651;DHT22;1335;48.180;16.342;2022-08-19T12:32:50;30.70;99.90
2651;DHT22;1335;48.180;16.342;2022-08-19T12:35:22;29.90;99.90
2651;DHT22;1335;48.180;16.342;2022-08-19T12:37:55;29.10;99.90
2651;DHT22;1335;48.180;16.342;2022-08-19T12:40:23;29.00;99.90
2651;DHT22;1335;48.180;16.342;2022-08-19T12:42:56;29.10;99.90
2651;DHT22;1335;48.180;16.342;2022-08-19T12:45:23;29.30;99.90
2651;DHT22;1335;48.180;16.342;2022-08-19T12:47:51;29.00;99.90
2651;DHT22;1335;48.180;16.342;2022-08-19T12:50:21;29.00;99.90
2651;DHT22;1335;48.180;16.342;2022-08-19T12:52:49;28.80;99.90
2651;DHT22;1335;48.180;16.342;2022-08-19T12:55:17;28.40;99.90
2651;DHT22;1335;48.180;16.342;2022-08-19T12:57:45;28.90;99.90
2651;DHT22;1335;48.180;16.342;2022-08-19T13:00:19;28.70;99.90
2651;DHT22;1335;48.180;16.342;2022-08-19T13:02:51;27.80;99.90
2651;DHT22;1335;48.180;16.342;2022-08-19T13:05:33;28.20;99.90
2651;DHT22;1335;48.180;16.342;2022-08-19T13:08:01;28.10;99.90
2651;DHT22;1335;48.180;16.342;2022-08-19T13:10:33;27.80;99.90
2651;DHT22;1335;48.180;16.342;2022-08-19T13:13:04;27.30;99.90
2651;DHT22;1335;48.180;16.342;2022-08-19T13:15:41;27.90;99.90
2651;DHT22;1335;48.180;16.342;2022-08-19T13:18:11;28.50;99.90
2651;DHT22;1335;48.180;16.342;2022-08-19T13:20:40;28.10;99.90
2651;DHT22;1335;48.180;16.342;2022-08-19T13:23:08;27.50;99.90
2651;DHT22;1335;48.180;16.342;2022-08-19T13:25:37;28.00;99.90
2651;DHT22;1335;48.180;16.342;2022-08-19T13:28:04;27.50;99.90
2651;DHT22;1335;48.180;16.342;2022-08-19T13:30:35;27.30;99.90
2651;DHT22;1335;48.180;16.342;2022-08-19T13:33:35;27.20;99.90
2651;DHT22;1335;48.180;16.342;2022-08-19T13:36:03;27.80;99.90
2651;DHT22;1335;48.180;16.342;2022-08-19T13:38:34;27.90;99.90
2651;DHT22;1335;48.180;16.342;2022-08-19T13:41:05;26.40;99.90
2651;DHT22;1335;48.180;16.342;2022-08-19T13:43:33;26.90;99.90
2651;DHT22;1335;48.180;16.342;2022-08-19T13:46:09;26.80;99.90
2651;DHT22;1335;48.180;16.342;2022-08-19T13:48:39;27.10;99.90
2651;DHT22;1335;48.180;16.342;2022-08-19T13:51:08;26.80;99.90
2651;DHT22;1335;48.180;16.342;2022-08-19T13:53:38;27.20;99.90
2651;DHT22;1335;48.180;16.342;2022-08-19T13:56:22;27.00;99.90
2651;DHT22;1335;48.180;16.342;2022-08-19T13:59:04;27.10;99.90
2651;DHT22;1335;48.180;16.342;2022-08-19T14:01:35;26.70;99.90
2651;DHT22;1335;48.180;16.342;2022-08-19T14:04:05;27.50;99.90
2651;DHT22;1335;48.180;16.342;2022-08-19T14:06:36;27.10;99.90
2651;DHT22;1335;48.180;16.342;2022-08-19T14:09:04;26.70;99.90
2651;DHT22;1335;48.180;16.342;2022-08-19T14:11:33;27.60;99.90
2651;DHT22;1335;48.180;16.342;2022-08-19T14:14:00;27.50;99.90
2651;DHT22;1335;48.180;16.342;2022-08-19T14:16:27;27.50;99.90
2651;DHT22;1335;48.180;16.342;2022-08-19T14:18:58;27.20;99.90
2651;DHT22;1335;48.180;16.342;2022-08-19T14:21:26;27.90;99.90
2651;DHT22;1335;48.180;16.342;2022-08-19T14:23:54;27.90;99.90
2651;DHT22;1335;48.180;16.342;2022-08-19T14:26:22;27.60;99.90
2651;DHT22;1335;48.180;16.342;2022-08-19T14:28:50;27.60;99.90
2651;DHT22;1335;48.180;16.342;2022-08-19T14:31:18;27.90;99.90
2651;DHT22;1335;48.180;16.342;2022-08-19T14:33:49;27.50;99.90
2651;DHT22;1335;48.180;16.342;2022-08-19T14:36:19;27.80;99.90
2651;DHT22;1335;48.180;16.342;2022-08-19T14:38:48;27.50;99.90
2651;DHT22;1335;48.180;16.342;2022-08-19T14:41:18;27.40;99.90
2651;DHT22;1335;48.180;16.342;2022-08-19T14:43:47;26.80;99.90
2651;DHT22;1335;48.180;16.342;2022-08-19T14:46:16;27.60;99.90
2651;DHT22;1335;48.180;16.342;2022-08-19T14:48:45;27.20;99.90
2651;DHT22;1335;48.180;16.342;2022-08-19T14:51:13;27.00;99.90
2651;DHT22;1335;48.180;16.342;2022-08-19T14:53:42;26.80;99.90
2651;DHT22;1335;48.180;16.342;2022-08-19T14:56:10;27.30;99.90
2651;DHT22;1335;48.180;16.342;2022-08-19T14:58:38;27.70;99.90
2651;DHT22;1335;48.180;16.342;2022-08-19T15:01:11;27.60;99.90
2651;DHT22;1335;48.180;16.342;2022-08-19T15:03:39;27.60;99.90
2651;DHT22;1335;48.180;16.342;2022-08-19T15:06:07;27.30;99.90
2651;DHT22;1335;48.180;16.342;2022-08-19T15:08:37;26.60;99.90
2651;DHT22;1335;48.180;16.342;2022-08-19T15:11:09;27.00;99.90
2651;DHT22;1335;48.180;16.342;2022-08-19T15:13:37;27.60;99.90
2651;DHT22;1335;48.180;16.342;2022-08-19T15:16:06;27.60;99.90
2651;DHT22;1335;48.180;16.342;2022-08-19T15:18:34;27.20;99.90
2651;DHT22;1335;48.180;16.342;2022-08-19T15:21:02;26.30;99.90
2651;DHT22;1335;48.180;16.342;2022-08-19T15:23:30;27.50;99.90
2651;DHT22;1335;48.180;16.342;2022-08-19T15:25:59;27.10;99.90
2651;DHT22;1335;48.180;16.342;2022-08-19T15:28:31;28.00;99.90
2651;DHT22;1335;48.180;16.342;2022-08-19T15:30:59;27.20;99.90
2651;DHT22;1335;48.180;16.342;2022-08-19T15:33:27;28.30;99.90
2651;DHT22;1335;48.180;16.342;2022-08-19T15:35:55;27.40;99.90
2651;DHT22;1335;48.180;16.342;2022-08-19T15:38:24;27.00;99.90
2651;DHT22;1335;48.180;16.342;2022-08-19T15:40:52;27.50;99.90
2651;DHT22;1335;48.180;16.342;2022-08-19T15:43:41;27.20;99.90
2651;DHT22;1335;48.180;16.342;2022-08-19T15:46:08;27.10;99.90
2651;DHT22;1335;48.180;16.342;2022-08-19T15:48:37;27.30;99.90
2651;DHT22;1335;48.180;16.342;2022-08-19T15:51:04;27.10;99.90
2651;DHT22;1335;48.180;16.342;2022-08-19T15:53:32;27.00;99.90
2651;DHT22;1335;48.180;16.342;2022-08-19T15:55:59;26.60;99.90
2651;DHT22;1335;48.180;16.342;2022-08-19T15:58:26;27.20;99.90
2651;DHT22;1335;48.180;16.342;2022-08-19T16:01:12;27.30;99.90